Accueil
METAR-TAF:

METAR-TAF

Aéroports :

Sion, Suisse

Aéroport de Sion

latitude: 46-13N, longitude: 007-20E, altitude: 482 m

Observation

Le bulletin a été fait il y a 42 minutes, à 21:50 UTC
Vent 9 kt de ouest
Température 4°C
Humidité 87%
Pression 1010 hPa
Visibilité: 7000 m
Ciel couvert à une hauteur de 500 ft
Ciel couvert à une hauteur de 1200 ft
pluie faible

METAR: LSGS 272150Z AUTO 26009KT 7000 -RA OVC005 OVC012 04/02 Q1010

Heure: 00:32 (22:32 UTC)

Prévision

Le bulletin a été fait il y a 8 heures et 7 minutes, à 14:25 UTC
Prévision valable du 27 à 15 UTC au 27 à 24 UTC
Vent 15 kt de ouest/sud-ouest
Visibilité 10 km ou plus
Nuages épars à une hauteur de 2000 ft
Ciel couvert à une hauteur de 7000 ft
Evoluant progressivement
du 27 à 20 UTC au 27 à 22 UTC
Vent 3 kt de direction variable

TAF: LSGS 271425Z 2715/2724 25015KT 9999 SCT020 OVC070 BECMG 2720/2722 VRB03KT

Observations et prévisions météorologiques de plus de 4000 aéroports (messages METAR et TAF).

Les stations disponibles sont représentées par des disques jaunes et rouges sur la carte.

Passer la souris dessus pour voir le nom de la station.

Cliquer dessus pour voir les observations et prévisions météorologiques.

Pour changer de carte: cliquez sur les boutons verts avec une croix noire pour zoomer, sur le bouton vert avec un tiret pour effectuer un zoom arrière, ou sur les flèches vertes pour les cartes adjacentes.


METAR-TAF: